sensor_id;sensor_type;location;lat;lon;timestamp;P1;durP1;ratioP1;P2;durP2;ratioP2
19812;SDS011;10066;48.108;11.448;2022-12-18T00:02:19;48.67;;;18.80;;
19812;SDS011;10066;48.108;11.448;2022-12-18T00:04:47;57.17;;;20.03;;
19812;SDS011;10066;48.108;11.448;2022-12-18T00:07:13;54.87;;;23.13;;
19812;SDS011;10066;48.108;11.448;2022-12-18T00:09:40;66.07;;;24.23;;
19812;SDS011;10066;48.108;11.448;2022-12-18T00:12:07;58.60;;;22.30;;
19812;SDS011;10066;48.108;11.448;2022-12-18T00:14:36;54.83;;;22.27;;
19812;SDS011;10066;48.108;11.448;2022-12-18T00:17:03;53.23;;;22.13;;
19812;SDS011;10066;48.108;11.448;2022-12-18T00:19:30;52.40;;;22.63;;
19812;SDS011;10066;48.108;11.448;2022-12-18T00:21:56;64.23;;;22.67;;
19812;SDS011;10066;48.108;11.448;2022-12-18T00:24:24;56.17;;;22.00;;
19812;SDS011;10066;48.108;11.448;2022-12-18T00:26:51;55.33;;;20.13;;
19812;SDS011;10066;48.108;11.448;2022-12-18T00:29:18;48.07;;;19.37;;
19812;SDS011;10066;48.108;11.448;2022-12-18T00:31:46;53.40;;;20.53;;
19812;SDS011;10066;48.108;11.448;2022-12-18T00:34:13;50.13;;;20.13;;
19812;SDS011;10066;48.108;11.448;2022-12-18T00:36:40;52.33;;;22.07;;
19812;SDS011;10066;48.108;11.448;2022-12-18T00:39:07;49.93;;;18.70;;
19812;SDS011;10066;48.108;11.448;2022-12-18T00:41:36;49.80;;;21.07;;
19812;SDS011;10066;48.108;11.448;2022-12-18T00:44:20;55.47;;;18.77;;
19812;SDS011;10066;48.108;11.448;2022-12-18T00:46:48;56.30;;;19.83;;
19812;SDS011;10066;48.108;11.448;2022-12-18T00:49:16;48.87;;;19.80;;
19812;SDS011;10066;48.108;11.448;2022-12-18T00:51:44;55.93;;;20.73;;
19812;SDS011;10066;48.108;11.448;2022-12-18T00:54:10;51.77;;;19.20;;
19812;SDS011;10066;48.108;11.448;2022-12-18T00:56:38;36.77;;;12.97;;
19812;SDS011;10066;48.108;11.448;2022-12-18T00:59:05;53.70;;;19.30;;
19812;SDS011;10066;48.108;11.448;2022-12-18T01:01:32;47.00;;;19.03;;
19812;SDS011;10066;48.108;11.448;2022-12-18T01:04:01;54.13;;;19.50;;
19812;SDS011;10066;48.108;11.448;2022-12-18T01:06:29;50.13;;;20.83;;
19812;SDS011;10066;48.108;11.448;2022-12-18T01:08:56;50.10;;;20.77;;
19812;SDS011;10066;48.108;11.448;2022-12-18T01:11:24;49.53;;;19.17;;
19812;SDS011;10066;48.108;11.448;2022-12-18T01:13:51;50.73;;;20.13;;
19812;SDS011;10066;48.108;11.448;2022-12-18T01:16:19;53.40;;;21.73;;
19812;SDS011;10066;48.108;11.448;2022-12-18T01:18:47;52.93;;;21.57;;
19812;SDS011;10066;48.108;11.448;2022-12-18T01:21:18;53.07;;;21.47;;
19812;SDS011;10066;48.108;11.448;2022-12-18T01:23:45;55.30;;;21.57;;
19812;SDS011;10066;48.108;11.448;2022-12-18T01:26:13;52.53;;;21.37;;
19812;SDS011;10066;48.108;11.448;2022-12-18T01:28:41;49.70;;;21.40;;
19812;SDS011;10066;48.108;11.448;2022-12-18T01:31:09;50.07;;;21.90;;
19812;SDS011;10066;48.108;11.448;2022-12-18T01:33:40;48.87;;;21.43;;
19812;SDS011;10066;48.108;11.448;2022-12-18T01:36:07;56.67;;;22.27;;
19812;SDS011;10066;48.108;11.448;2022-12-18T01:38:41;54.93;;;22.17;;
19812;SDS011;10066;48.108;11.448;2022-12-18T01:41:10;49.33;;;21.40;;
19812;SDS011;10066;48.108;11.448;2022-12-18T01:46:09;53.63;;;20.97;;
19812;SDS011;10066;48.108;11.448;2022-12-18T01:48:36;60.53;;;24.80;;
19812;SDS011;10066;48.108;11.448;2022-12-18T01:51:03;58.50;;;23.27;;
19812;SDS011;10066;48.108;11.448;2022-12-18T01:53:32;58.60;;;22.83;;
19812;SDS011;10066;48.108;11.448;2022-12-18T01:56:00;60.93;;;24.00;;
19812;SDS011;10066;48.108;11.448;2022-12-18T01:58:27;55.27;;;23.83;;
19812;SDS011;10066;48.108;11.448;2022-12-18T02:00:59;56.07;;;22.60;;
19812;SDS011;10066;48.108;11.448;2022-12-18T02:03:26;55.57;;;22.87;;
19812;SDS011;10066;48.108;11.448;2022-12-18T02:05:54;49.87;;;20.67;;
19812;SDS011;10066;48.108;11.448;2022-12-18T02:08:29;55.57;;;24.20;;
19812;SDS011;10066;48.108;11.448;2022-12-18T02:11:05;58.53;;;22.97;;
19812;SDS011;10066;48.108;11.448;2022-12-18T02:13:39;56.47;;;22.90;;
19812;SDS011;10066;48.108;11.448;2022-12-18T02:16:11;57.57;;;23.40;;
19812;SDS011;10066;48.108;11.448;2022-12-18T02:18:48;56.13;;;23.57;;
19812;SDS011;10066;48.108;11.448;2022-12-18T02:21:22;55.67;;;23.00;;
19812;SDS011;10066;48.108;11.448;2022-12-18T02:23:56;55.50;;;22.97;;
19812;SDS011;10066;48.108;11.448;2022-12-18T02:26:32;61.70;;;24.50;;
19812;SDS011;10066;48.108;11.448;2022-12-18T02:29:03;52.53;;;23.17;;
19812;SDS011;10066;48.108;11.448;2022-12-18T02:31:35;60.67;;;24.30;;
19812;SDS011;10066;48.108;11.448;2022-12-18T02:34:06;59.03;;;23.43;;
19812;SDS011;10066;48.108;11.448;2022-12-18T02:36:35;58.97;;;22.57;;
19812;SDS011;10066;48.108;11.448;2022-12-18T02:39:05;57.53;;;25.53;;
19812;SDS011;10066;48.108;11.448;2022-12-18T02:41:36;55.10;;;22.77;;
19812;SDS011;10066;48.108;11.448;2022-12-18T02:44:07;58.27;;;24.83;;
19812;SDS011;10066;48.108;11.448;2022-12-18T02:46:36;56.90;;;23.70;;
19812;SDS011;10066;48.108;11.448;2022-12-18T02:49:08;61.73;;;24.83;;
19812;SDS011;10066;48.108;11.448;2022-12-18T02:51:44;56.80;;;23.90;;
19812;SDS011;10066;48.108;11.448;2022-12-18T02:54:21;66.23;;;24.53;;
19812;SDS011;10066;48.108;11.448;2022-12-18T02:56:58;51.70;;;21.30;;
19812;SDS011;10066;48.108;11.448;2022-12-18T02:59:36;59.37;;;24.63;;
19812;SDS011;10066;48.108;11.448;2022-12-18T03:02:11;58.87;;;24.13;;
19812;SDS011;10066;48.108;11.448;2022-12-18T03:04:47;60.03;;;23.53;;
19812;SDS011;10066;48.108;11.448;2022-12-18T03:07:18;60.23;;;24.90;;
19812;SDS011;10066;48.108;11.448;2022-12-18T03:09:51;54.57;;;24.53;;
19812;SDS011;10066;48.108;11.448;2022-12-18T03:12:22;58.80;;;25.23;;
19812;SDS011;10066;48.108;11.448;2022-12-18T03:14:55;48.40;;;22.73;;
19812;SDS011;10066;48.108;11.448;2022-12-18T03:17:26;53.50;;;23.83;;
19812;SDS011;10066;48.108;11.448;2022-12-18T03:19:55;60.63;;;24.87;;
19812;SDS011;10066;48.108;11.448;2022-12-18T03:22:26;58.80;;;23.17;;
19812;SDS011;10066;48.108;11.448;2022-12-18T03:24:55;54.47;;;23.50;;
19812;SDS011;10066;48.108;11.448;2022-12-18T03:27:26;57.87;;;23.97;;
19812;SDS011;10066;48.108;11.448;2022-12-18T03:29:56;55.47;;;24.13;;
19812;SDS011;10066;48.108;11.448;2022-12-18T03:32:33;54.97;;;25.00;;
19812;SDS011;10066;48.108;11.448;2022-12-18T03:35:04;51.40;;;23.30;;
19812;SDS011;10066;48.108;11.448;2022-12-18T03:37:33;52.73;;;22.97;;
19812;SDS011;10066;48.108;11.448;2022-12-18T03:40:00;52.63;;;22.67;;
19812;SDS011;10066;48.108;11.448;2022-12-18T03:42:29;49.80;;;22.70;;
19812;SDS011;10066;48.108;11.448;2022-12-18T03:45:04;53.10;;;24.43;;
19812;SDS011;10066;48.108;11.448;2022-12-18T03:47:36;51.60;;;22.50;;
19812;SDS011;10066;48.108;11.448;2022-12-18T03:50:11;49.63;;;22.00;;
19812;SDS011;10066;48.108;11.448;2022-12-18T03:52:41;49.40;;;22.60;;
19812;SDS011;10066;48.108;11.448;2022-12-18T03:55:15;49.90;;;22.13;;
19812;SDS011;10066;48.108;11.448;2022-12-18T03:57:44;50.50;;;22.87;;
19812;SDS011;10066;48.108;11.448;2022-12-18T04:00:14;47.53;;;20.27;;
19812;SDS011;10066;48.108;11.448;2022-12-18T04:02:44;57.50;;;23.27;;
19812;SDS011;10066;48.108;11.448;2022-12-18T04:05:14;57.87;;;21.63;;
19812;SDS011;10066;48.108;11.448;2022-12-18T04:07:43;51.60;;;20.47;;
19812;SDS011;10066;48.108;11.448;2022-12-18T04:10:12;60.63;;;23.23;;
19812;SDS011;10066;48.108;11.448;2022-12-18T04:12:41;51.73;;;22.13;;
19812;SDS011;10066;48.108;11.448;2022-12-18T04:15:10;52.37;;;22.57;;
19812;SDS011;10066;48.108;11.448;2022-12-18T04:17:38;57.40;;;22.47;;
19812;SDS011;10066;48.108;11.448;2022-12-18T04:20:09;45.73;;;20.27;;
19812;SDS011;10066;48.108;11.448;2022-12-18T04:22:36;52.57;;;21.30;;
19812;SDS011;10066;48.108;11.448;2022-12-18T04:25:04;52.37;;;19.97;;
19812;SDS011;10066;48.108;11.448;2022-12-18T04:27:31;54.43;;;23.23;;
19812;SDS011;10066;48.108;11.448;2022-12-18T04:29:58;49.10;;;20.37;;
19812;SDS011;10066;48.108;11.448;2022-12-18T04:32:27;50.63;;;21.37;;
19812;SDS011;10066;48.108;11.448;2022-12-18T04:34:54;47.03;;;20.03;;
19812;SDS011;10066;48.108;11.448;2022-12-18T04:37:20;53.17;;;22.10;;
19812;SDS011;10066;48.108;11.448;2022-12-18T04:39:48;50.93;;;21.13;;
19812;SDS011;10066;48.108;11.448;2022-12-18T04:42:16;50.33;;;21.67;;
19812;SDS011;10066;48.108;11.448;2022-12-18T04:44:43;47.30;;;21.63;;
19812;SDS011;10066;48.108;11.448;2022-12-18T04:47:10;51.63;;;21.07;;
19812;SDS011;10066;48.108;11.448;2022-12-18T04:49:38;42.40;;;19.87;;
19812;SDS011;10066;48.108;11.448;2022-12-18T04:52:05;44.77;;;21.47;;
19812;SDS011;10066;48.108;11.448;2022-12-18T04:54:34;45.67;;;19.97;;
19812;SDS011;10066;48.108;11.448;2022-12-18T04:57:01;50.77;;;20.50;;
19812;SDS011;10066;48.108;11.448;2022-12-18T04:59:28;45.97;;;21.03;;
19812;SDS011;10066;48.108;11.448;2022-12-18T05:01:55;43.03;;;20.13;;
19812;SDS011;10066;48.108;11.448;2022-12-18T05:04:22;45.83;;;20.60;;
19812;SDS011;10066;48.108;11.448;2022-12-18T05:06:50;43.23;;;21.63;;
19812;SDS011;10066;48.108;11.448;2022-12-18T05:09:17;42.07;;;20.70;;
19812;SDS011;10066;48.108;11.448;2022-12-18T05:11:44;46.47;;;20.07;;
19812;SDS011;10066;48.108;11.448;2022-12-18T05:14:11;48.73;;;20.57;;
19812;SDS011;10066;48.108;11.448;2022-12-18T05:16:38;45.67;;;21.07;;
19812;SDS011;10066;48.108;11.448;2022-12-18T05:19:05;43.23;;;19.40;;
19812;SDS011;10066;48.108;11.448;2022-12-18T05:21:32;41.60;;;19.27;;
19812;SDS011;10066;48.108;11.448;2022-12-18T05:24:00;44.27;;;19.50;;
19812;SDS011;10066;48.108;11.448;2022-12-18T05:26:27;42.40;;;18.90;;
19812;SDS011;10066;48.108;11.448;2022-12-18T05:28:55;45.03;;;20.50;;
19812;SDS011;10066;48.108;11.448;2022-12-18T05:31:22;44.77;;;21.03;;
19812;SDS011;10066;48.108;11.448;2022-12-18T05:33:49;39.60;;;18.10;;
19812;SDS011;10066;48.108;11.448;2022-12-18T05:36:16;45.60;;;20.20;;
19812;SDS011;10066;48.108;11.448;2022-12-18T05:38:43;46.27;;;21.30;;
19812;SDS011;10066;48.108;11.448;2022-12-18T05:41:11;43.60;;;20.27;;
19812;SDS011;10066;48.108;11.448;2022-12-18T05:43:39;45.73;;;20.93;;
19812;SDS011;10066;48.108;11.448;2022-12-18T05:46:06;44.00;;;21.13;;
19812;SDS011;10066;48.108;11.448;2022-12-18T05:48:35;43.33;;;19.77;;
19812;SDS011;10066;48.108;11.448;2022-12-18T05:51:05;36.70;;;15.90;;
19812;SDS011;10066;48.108;11.448;2022-12-18T05:53:33;33.90;;;17.97;;
19812;SDS011;10066;48.108;11.448;2022-12-18T05:56:02;38.13;;;18.00;;
19812;SDS011;10066;48.108;11.448;2022-12-18T05:58:34;37.93;;;18.23;;
19812;SDS011;10066;48.108;11.448;2022-12-18T06:01:06;42.20;;;19.13;;
19812;SDS011;10066;48.108;11.448;2022-12-18T06:03:34;43.23;;;19.03;;
19812;SDS011;10066;48.108;11.448;2022-12-18T06:06:01;39.80;;;18.17;;
19812;SDS011;10066;48.108;11.448;2022-12-18T06:08:29;41.70;;;18.50;;
19812;SDS011;10066;48.108;11.448;2022-12-18T06:10:56;38.90;;;18.17;;
19812;SDS011;10066;48.108;11.448;2022-12-18T06:13:22;39.00;;;18.07;;
19812;SDS011;10066;48.108;11.448;2022-12-18T06:15:51;37.30;;;17.33;;
19812;SDS011;10066;48.108;11.448;2022-12-18T06:18:18;39.47;;;17.40;;
19812;SDS011;10066;48.108;11.448;2022-12-18T06:20:53;42.60;;;18.47;;
19812;SDS011;10066;48.108;11.448;2022-12-18T06:23:21;35.77;;;17.03;;
19812;SDS011;10066;48.108;11.448;2022-12-18T06:25:48;38.50;;;17.60;;
19812;SDS011;10066;48.108;11.448;2022-12-18T06:28:15;31.27;;;16.67;;
19812;SDS011;10066;48.108;11.448;2022-12-18T06:30:42;35.03;;;16.90;;
19812;SDS011;10066;48.108;11.448;2022-12-18T06:33:11;34.07;;;16.60;;
19812;SDS011;10066;48.108;11.448;2022-12-18T06:35:39;39.40;;;16.83;;
19812;SDS011;10066;48.108;11.448;2022-12-18T06:38:06;36.83;;;17.40;;
19812;SDS011;10066;48.108;11.448;2022-12-18T06:40:33;35.67;;;17.57;;
19812;SDS011;10066;48.108;11.448;2022-12-18T06:43:02;37.83;;;17.77;;
19812;SDS011;10066;48.108;11.448;2022-12-18T06:45:29;35.43;;;17.33;;
19812;SDS011;10066;48.108;11.448;2022-12-18T06:47:56;38.80;;;18.33;;
19812;SDS011;10066;48.108;11.448;2022-12-18T06:50:28;43.67;;;14.17;;
19812;SDS011;10066;48.108;11.448;2022-12-18T06:52:55;40.33;;;19.17;;
19812;SDS011;10066;48.108;11.448;2022-12-18T06:55:22;41.60;;;18.43;;
19812;SDS011;10066;48.108;11.448;2022-12-18T06:57:49;45.83;;;19.40;;
19812;SDS011;10066;48.108;11.448;2022-12-18T07:00:16;43.47;;;18.53;;
19812;SDS011;10066;48.108;11.448;2022-12-18T07:02:44;36.93;;;17.13;;
19812;SDS011;10066;48.108;11.448;2022-12-18T07:05:14;39.40;;;17.33;;
19812;SDS011;10066;48.108;11.448;2022-12-18T07:07:42;36.10;;;17.00;;
19812;SDS011;10066;48.108;11.448;2022-12-18T07:10:09;32.77;;;16.97;;
19812;SDS011;10066;48.108;11.448;2022-12-18T07:12:36;35.47;;;16.67;;
19812;SDS011;10066;48.108;11.448;2022-12-18T07:15:03;37.43;;;16.53;;
19812;SDS011;10066;48.108;11.448;2022-12-18T07:17:31;37.00;;;16.73;;
19812;SDS011;10066;48.108;11.448;2022-12-18T07:19:58;35.27;;;18.17;;
19812;SDS011;10066;48.108;11.448;2022-12-18T07:22:25;33.17;;;15.67;;
19812;SDS011;10066;48.108;11.448;2022-12-18T07:24:54;35.97;;;17.37;;
19812;SDS011;10066;48.108;11.448;2022-12-18T07:27:21;37.87;;;18.20;;
19812;SDS011;10066;48.108;11.448;2022-12-18T07:29:48;30.47;;;15.50;;
19812;SDS011;10066;48.108;11.448;2022-12-18T07:32:15;34.80;;;16.57;;
19812;SDS011;10066;48.108;11.448;2022-12-18T07:34:43;34.07;;;16.07;;
19812;SDS011;10066;48.108;11.448;2022-12-18T07:37:10;36.37;;;16.67;;
19812;SDS011;10066;48.108;11.448;2022-12-18T07:39:37;42.80;;;18.27;;
19812;SDS011;10066;48.108;11.448;2022-12-18T07:42:07;37.07;;;17.60;;
19812;SDS011;10066;48.108;11.448;2022-12-18T07:44:51;36.63;;;17.57;;
19812;SDS011;10066;48.108;11.448;2022-12-18T07:47:20;36.83;;;17.13;;
19812;SDS011;10066;48.108;11.448;2022-12-18T07:49:48;29.97;;;15.97;;
19812;SDS011;10066;48.108;11.448;2022-12-18T07:52:15;37.43;;;15.80;;
19812;SDS011;10066;48.108;11.448;2022-12-18T07:54:42;39.07;;;17.30;;
19812;SDS011;10066;48.108;11.448;2022-12-18T07:57:10;37.47;;;16.77;;
19812;SDS011;10066;48.108;11.448;2022-12-18T07:59:37;35.27;;;17.70;;
19812;SDS011;10066;48.108;11.448;2022-12-18T08:02:04;38.20;;;16.47;;
19812;SDS011;10066;48.108;11.448;2022-12-18T08:04:31;31.17;;;15.13;;
19812;SDS011;10066;48.108;11.448;2022-12-18T08:06:58;36.97;;;15.70;;
19812;SDS011;10066;48.108;11.448;2022-12-18T08:09:25;36.93;;;17.03;;
19812;SDS011;10066;48.108;11.448;2022-12-18T08:11:52;31.27;;;15.67;;
19812;SDS011;10066;48.108;11.448;2022-12-18T08:14:20;39.13;;;17.30;;
19812;SDS011;10066;48.108;11.448;2022-12-18T08:16:47;28.27;;;13.27;;
19812;SDS011;10066;48.108;11.448;2022-12-18T08:19:14;32.77;;;14.90;;
19812;SDS011;10066;48.108;11.448;2022-12-18T08:21:41;31.00;;;15.80;;
19812;SDS011;10066;48.108;11.448;2022-12-18T08:24:09;30.57;;;16.13;;
19812;SDS011;10066;48.108;11.448;2022-12-18T08:26:37;35.57;;;16.63;;
19812;SDS011;10066;48.108;11.448;2022-12-18T08:29:04;31.33;;;15.43;;
19812;SDS011;10066;48.108;11.448;2022-12-18T08:31:32;35.20;;;16.50;;
19812;SDS011;10066;48.108;11.448;2022-12-18T08:33:59;33.90;;;16.20;;
19812;SDS011;10066;48.108;11.448;2022-12-18T08:36:26;33.27;;;15.40;;
19812;SDS011;10066;48.108;11.448;2022-12-18T08:38:53;36.03;;;15.73;;
19812;SDS011;10066;48.108;11.448;2022-12-18T08:41:20;30.63;;;14.67;;
19812;SDS011;10066;48.108;11.448;2022-12-18T08:43:49;33.07;;;15.67;;
19812;SDS011;10066;48.108;11.448;2022-12-18T08:46:36;32.07;;;15.87;;
19812;SDS011;10066;48.108;11.448;2022-12-18T08:49:04;31.50;;;15.40;;
19812;SDS011;10066;48.108;11.448;2022-12-18T08:51:31;34.00;;;15.63;;
19812;SDS011;10066;48.108;11.448;2022-12-18T08:53:59;32.83;;;15.43;;
19812;SDS011;10066;48.108;11.448;2022-12-18T08:56:26;32.37;;;15.33;;
19812;SDS011;10066;48.108;11.448;2022-12-18T08:58:53;30.23;;;13.93;;
19812;SDS011;10066;48.108;11.448;2022-12-18T09:01:20;30.47;;;14.80;;
19812;SDS011;10066;48.108;11.448;2022-12-18T09:03:49;28.40;;;14.60;;
19812;SDS011;10066;48.108;11.448;2022-12-18T09:06:17;28.50;;;14.37;;
19812;SDS011;10066;48.108;11.448;2022-12-18T09:08:45;28.13;;;14.00;;
19812;SDS011;10066;48.108;11.448;2022-12-18T09:11:13;29.90;;;14.10;;
19812;SDS011;10066;48.108;11.448;2022-12-18T09:13:41;32.73;;;14.97;;
19812;SDS011;10066;48.108;11.448;2022-12-18T09:16:08;29.67;;;13.87;;
19812;SDS011;10066;48.108;11.448;2022-12-18T09:18:35;33.60;;;14.27;;
19812;SDS011;10066;48.108;11.448;2022-12-18T09:21:08;28.97;;;14.70;;
19812;SDS011;10066;48.108;11.448;2022-12-18T09:23:36;31.73;;;15.27;;
19812;SDS011;10066;48.108;11.448;2022-12-18T09:26:03;30.20;;;14.50;;
19812;SDS011;10066;48.108;11.448;2022-12-18T09:28:30;24.90;;;13.50;;
19812;SDS011;10066;48.108;11.448;2022-12-18T09:30:57;30.13;;;14.60;;
19812;SDS011;10066;48.108;11.448;2022-12-18T09:33:24;31.20;;;15.53;;
19812;SDS011;10066;48.108;11.448;2022-12-18T09:35:51;29.80;;;14.83;;
19812;SDS011;10066;48.108;11.448;2022-12-18T09:38:19;28.90;;;14.40;;
19812;SDS011;10066;48.108;11.448;2022-12-18T09:40:48;28.63;;;14.83;;
19812;SDS011;10066;48.108;11.448;2022-12-18T09:43:20;25.93;;;13.37;;
19812;SDS011;10066;48.108;11.448;2022-12-18T09:45:53;28.37;;;14.93;;
19812;SDS011;10066;48.108;11.448;2022-12-18T09:48:25;28.23;;;14.03;;
19812;SDS011;10066;48.108;11.448;2022-12-18T09:50:56;26.97;;;14.63;;
19812;SDS011;10066;48.108;11.448;2022-12-18T09:53:30;25.60;;;13.23;;
19812;SDS011;10066;48.108;11.448;2022-12-18T09:56:01;27.30;;;13.57;;
19812;SDS011;10066;48.108;11.448;2022-12-18T09:58:31;29.43;;;14.50;;
19812;SDS011;10066;48.108;11.448;2022-12-18T10:01:02;29.33;;;14.67;;
19812;SDS011;10066;48.108;11.448;2022-12-18T10:03:35;32.93;;;15.43;;
19812;SDS011;10066;48.108;11.448;2022-12-18T10:06:05;27.53;;;13.50;;
19812;SDS011;10066;48.108;11.448;2022-12-18T10:08:39;31.13;;;15.00;;
19812;SDS011;10066;48.108;11.448;2022-12-18T10:11:21;28.07;;;14.33;;
19812;SDS011;10066;48.108;11.448;2022-12-18T10:13:55;28.50;;;13.63;;
19812;SDS011;10066;48.108;11.448;2022-12-18T10:16:27;28.57;;;14.03;;
19812;SDS011;10066;48.108;11.448;2022-12-18T10:19:01;28.47;;;13.90;;
19812;SDS011;10066;48.108;11.448;2022-12-18T10:21:41;32.97;;;14.77;;
19812;SDS011;10066;48.108;11.448;2022-12-18T10:24:14;27.67;;;14.27;;
19812;SDS011;10066;48.108;11.448;2022-12-18T10:26:53;26.23;;;13.63;;
19812;SDS011;10066;48.108;11.448;2022-12-18T10:29:24;27.00;;;14.03;;
19812;SDS011;10066;48.108;11.448;2022-12-18T10:31:51;28.77;;;13.80;;
19812;SDS011;10066;48.108;11.448;2022-12-18T10:34:18;28.20;;;14.40;;
19812;SDS011;10066;48.108;11.448;2022-12-18T10:36:46;28.10;;;14.20;;
19812;SDS011;10066;48.108;11.448;2022-12-18T10:39:17;27.73;;;14.23;;
19812;SDS011;10066;48.108;11.448;2022-12-18T10:41:46;25.30;;;13.00;;
19812;SDS011;10066;48.108;11.448;2022-12-18T10:44:15;28.57;;;14.50;;
19812;SDS011;10066;48.108;11.448;2022-12-18T10:46:45;26.40;;;14.00;;
19812;SDS011;10066;48.108;11.448;2022-12-18T10:49:19;26.07;;;13.70;;
19812;SDS011;10066;48.108;11.448;2022-12-18T10:51:48;26.67;;;14.20;;
19812;SDS011;10066;48.108;11.448;2022-12-18T10:54:18;27.30;;;13.00;;
19812;SDS011;10066;48.108;11.448;2022-12-18T10:56:48;24.03;;;12.87;;
19812;SDS011;10066;48.108;11.448;2022-12-18T10:59:16;28.17;;;13.70;;
19812;SDS011;10066;48.108;11.448;2022-12-18T11:01:50;27.07;;;13.23;;
19812;SDS011;10066;48.108;11.448;2022-12-18T11:04:20;27.53;;;13.87;;
19812;SDS011;10066;48.108;11.448;2022-12-18T11:06:55;26.70;;;13.67;;
19812;SDS011;10066;48.108;11.448;2022-12-18T11:09:26;25.27;;;12.57;;
19812;SDS011;10066;48.108;11.448;2022-12-18T11:11:54;21.03;;;11.13;;
19812;SDS011;10066;48.108;11.448;2022-12-18T11:14:24;27.50;;;13.17;;
19812;SDS011;10066;48.108;11.448;2022-12-18T11:16:53;27.10;;;13.17;;
19812;SDS011;10066;48.108;11.448;2022-12-18T11:19:25;26.10;;;13.40;;
19812;SDS011;10066;48.108;11.448;2022-12-18T11:21:56;26.57;;;12.50;;
19812;SDS011;10066;48.108;11.448;2022-12-18T11:24:27;27.50;;;12.73;;
19812;SDS011;10066;48.108;11.448;2022-12-18T11:26:57;27.23;;;13.53;;
19812;SDS011;10066;48.108;11.448;2022-12-18T11:29:28;24.13;;;13.47;;
19812;SDS011;10066;48.108;11.448;2022-12-18T11:32:13;25.33;;;12.73;;
19812;SDS011;10066;48.108;11.448;2022-12-18T11:34:55;29.47;;;13.70;;
19812;SDS011;10066;48.108;11.448;2022-12-18T11:37:26;26.60;;;14.00;;
19812;SDS011;10066;48.108;11.448;2022-12-18T11:39:56;25.03;;;12.50;;
19812;SDS011;10066;48.108;11.448;2022-12-18T11:42:27;28.77;;;13.77;;
19812;SDS011;10066;48.108;11.448;2022-12-18T11:45:03;27.20;;;13.10;;
19812;SDS011;10066;48.108;11.448;2022-12-18T11:47:52;25.00;;;13.57;;
19812;SDS011;10066;48.108;11.448;2022-12-18T11:50:24;26.60;;;13.30;;
19812;SDS011;10066;48.108;11.448;2022-12-18T11:52:54;28.13;;;14.03;;
19812;SDS011;10066;48.108;11.448;2022-12-18T11:55:25;28.87;;;14.57;;
19812;SDS011;10066;48.108;11.448;2022-12-18T11:58:00;30.23;;;14.73;;
19812;SDS011;10066;48.108;11.448;2022-12-18T12:00:34;29.17;;;13.63;;
19812;SDS011;10066;48.108;11.448;2022-12-18T12:03:14;29.40;;;14.67;;
19812;SDS011;10066;48.108;11.448;2022-12-18T12:05:56;25.63;;;13.30;;
19812;SDS011;10066;48.108;11.448;2022-12-18T12:08:31;26.87;;;13.53;;
19812;SDS011;10066;48.108;11.448;2022-12-18T12:11:13;28.93;;;14.17;;
19812;SDS011;10066;48.108;11.448;2022-12-18T12:13:48;23.33;;;12.60;;
19812;SDS011;10066;48.108;11.448;2022-12-18T12:16:24;26.93;;;14.63;;
19812;SDS011;10066;48.108;11.448;2022-12-18T12:18:58;26.60;;;13.67;;
19812;SDS011;10066;48.108;11.448;2022-12-18T12:21:34;27.63;;;13.50;;
19812;SDS011;10066;48.108;11.448;2022-12-18T12:24:07;27.47;;;13.67;;
19812;SDS011;10066;48.108;11.448;2022-12-18T12:26:48;27.43;;;12.93;;
19812;SDS011;10066;48.108;11.448;2022-12-18T12:29:24;25.97;;;12.17;;
19812;SDS011;10066;48.108;11.448;2022-12-18T12:32:07;26.60;;;13.63;;
19812;SDS011;10066;48.108;11.448;2022-12-18T12:34:51;25.23;;;12.03;;
19812;SDS011;10066;48.108;11.448;2022-12-18T12:37:26;23.60;;;12.60;;
19812;SDS011;10066;48.108;11.448;2022-12-18T12:40:04;25.60;;;12.77;;
19812;SDS011;10066;48.108;11.448;2022-12-18T12:42:34;25.03;;;12.63;;
19812;SDS011;10066;48.108;11.448;2022-12-18T12:45:23;26.43;;;13.90;;
19812;SDS011;10066;48.108;11.448;2022-12-18T12:47:56;25.53;;;12.80;;
19812;SDS011;10066;48.108;11.448;2022-12-18T12:50:25;25.40;;;13.37;;
19812;SDS011;10066;48.108;11.448;2022-12-18T12:52:53;26.80;;;13.37;;
19812;SDS011;10066;48.108;11.448;2022-12-18T12:55:24;30.80;;;13.80;;
19812;SDS011;10066;48.108;11.448;2022-12-18T12:57:57;26.90;;;13.23;;
19812;SDS011;10066;48.108;11.448;2022-12-18T13:00:30;27.27;;;13.67;;
19812;SDS011;10066;48.108;11.448;2022-12-18T13:03:07;27.77;;;13.23;;
19812;SDS011;10066;48.108;11.448;2022-12-18T13:05:43;30.10;;;14.40;;
19812;SDS011;10066;48.108;11.448;2022-12-18T13:08:21;25.67;;;13.33;;
19812;SDS011;10066;48.108;11.448;2022-12-18T13:10:50;27.47;;;13.40;;
19812;SDS011;10066;48.108;11.448;2022-12-18T13:13:49;28.20;;;13.03;;
19812;SDS011;10066;48.108;11.448;2022-12-18T13:16:17;27.93;;;14.03;;
19812;SDS011;10066;48.108;11.448;2022-12-18T13:18:49;27.77;;;13.73;;
19812;SDS011;10066;48.108;11.448;2022-12-18T13:21:19;25.27;;;12.83;;
19812;SDS011;10066;48.108;11.448;2022-12-18T13:23:49;30.93;;;14.30;;
19812;SDS011;10066;48.108;11.448;2022-12-18T13:26:30;24.77;;;12.73;;
19812;SDS011;10066;48.108;11.448;2022-12-18T13:29:02;28.10;;;14.37;;
19812;SDS011;10066;48.108;11.448;2022-12-18T13:34:35;20.80;;;10.40;;
19812;SDS011;10066;48.108;11.448;2022-12-18T13:43:21;27.00;;;13.03;;
19812;SDS011;10066;48.108;11.448;2022-12-18T13:46:00;31.53;;;13.80;;
19812;SDS011;10066;48.108;11.448;2022-12-18T13:48:31;27.40;;;13.67;;
19812;SDS011;10066;48.108;11.448;2022-12-18T13:51:01;25.70;;;13.50;;
19812;SDS011;10066;48.108;11.448;2022-12-18T13:53:33;31.00;;;14.97;;
19812;SDS011;10066;48.108;11.448;2022-12-18T13:56:04;28.57;;;13.53;;
19812;SDS011;10066;48.108;11.448;2022-12-18T13:58:32;31.07;;;14.60;;
19812;SDS011;10066;48.108;11.448;2022-12-18T14:01:00;27.40;;;14.20;;
19812;SDS011;10066;48.108;11.448;2022-12-18T14:03:29;27.33;;;13.53;;
19812;SDS011;10066;48.108;11.448;2022-12-18T14:06:01;24.77;;;13.33;;
19812;SDS011;10066;48.108;11.448;2022-12-18T14:08:36;29.07;;;13.90;;
19812;SDS011;10066;48.108;11.448;2022-12-18T14:11:05;24.00;;;12.43;;
19812;SDS011;10066;48.108;11.448;2022-12-18T14:13:34;34.17;;;13.83;;
19812;SDS011;10066;48.108;11.448;2022-12-18T14:16:05;29.70;;;14.27;;
19812;SDS011;10066;48.108;11.448;2022-12-18T14:18:38;25.80;;;13.57;;
19812;SDS011;10066;48.108;11.448;2022-12-18T14:21:15;29.43;;;14.33;;
19812;SDS011;10066;48.108;11.448;2022-12-18T14:23:45;27.73;;;12.87;;
19812;SDS011;10066;48.108;11.448;2022-12-18T14:26:20;26.97;;;13.37;;
19812;SDS011;10066;48.108;11.448;2022-12-18T14:28:49;27.30;;;13.70;;
19812;SDS011;10066;48.108;11.448;2022-12-18T14:31:18;30.30;;;13.87;;
19812;SDS011;10066;48.108;11.448;2022-12-18T14:33:46;27.43;;;13.80;;
19812;SDS011;10066;48.108;11.448;2022-12-18T14:36:15;28.00;;;12.63;;
19812;SDS011;10066;48.108;11.448;2022-12-18T14:38:43;24.70;;;13.00;;